Time;durP1;ratioP1;P1;durP2;ratioP2;P2;SDS_P1;SDS_P2;PMS_P1;PMS_P2;Temp;Humidity;BMP_temperature;BMP_pressure;BME280_temperature;BME280_humidity;BME280_pressure;Samples;Min_cycle;Max_cycle;Signal;HPM_P1;HPM_P2
2023/07/26 00:00:24;;;;;;;2.45;2.25;;;20.80;77.00;;;;;;5112385;28;20190;-84
2023/07/26 00:02:50;;;;;;;2.55;2.35;;;20.70;76.90;;;;;;5112414;28;20605;-85
2023/07/26 00:05:17;;;;;;;2.30;2.10;;;20.70;76.80;;;;;;5112402;28;20221;-82
2023/07/26 00:07:42;;;;;;;2.35;2.15;;;20.70;76.80;;;;;;5096063;28;20271;-85
2023/07/26 00:10:09;;;;;;;2.50;2.30;;;20.70;76.80;;;;;;5112767;28;20258;-83
2023/07/26 00:12:35;;;;;;;2.60;2.40;;;20.80;76.90;;;;;;5112306;28;20259;-84
2023/07/26 00:15:01;;;;;;;2.60;2.40;;;20.70;76.80;;;;;;5112191;28;20627;-84
2023/07/26 00:17:26;;;;;;;2.53;2.33;;;20.60;76.80;;;;;;5112490;28;20160;-84
2023/07/26 00:19:52;;;;;;;2.50;2.30;;;20.70;76.90;;;;;;5112113;28;20538;-83
2023/07/26 00:22:18;;;;;;;2.65;2.45;;;20.70;76.90;;;;;;5095321;28;20157;-84
2023/07/26 00:24:44;;;;;;;2.60;2.40;;;20.70;76.90;;;;;;5095624;28;20586;-84
2023/07/26 00:27:12;;;;;;;2.58;2.38;;;20.70;76.80;;;;;;5112044;28;20622;-83
2023/07/26 00:29:38;;;;;;;2.50;2.30;;;20.70;76.70;;;;;;5112049;28;20160;-84
2023/07/26 00:32:04;;;;;;;2.45;2.25;;;20.70;76.70;;;;;;5095625;28;20599;-85
2023/07/26 00:34:30;;;;;;;2.40;2.20;;;20.70;76.80;;;;;;5095481;28;20156;-84
2023/07/26 00:36:56;;;;;;;2.38;2.17;;;20.70;76.80;;;;;;5095201;28;20160;-84
2023/07/26 00:39:22;;;;;;;2.70;2.50;;;20.80;76.90;;;;;;5095368;28;20686;-85
2023/07/26 00:41:48;;;;;;;2.30;2.10;;;20.70;76.80;;;;;;5095488;28;20179;-86
2023/07/26 00:44:14;;;;;;;2.40;2.20;;;20.70;76.80;;;;;;5094964;28;20187;-82
2023/07/26 00:46:40;;;;;;;2.50;2.30;;;20.70;76.70;;;;;;5113074;28;20160;-85
2023/07/26 00:49:06;;;;;;;2.50;2.30;;;20.70;77.60;;;;;;5114497;28;20160;-82
2023/07/26 00:51:33;;;;;;;2.15;2.05;;;20.70;76.70;;;;;;5116155;28;20148;-84
2023/07/26 00:53:59;;;;;;;2.40;2.20;;;20.70;76.80;;;;;;5102132;27;20329;-84
2023/07/26 00:56:26;;;;;;;2.50;2.30;;;20.70;76.70;;;;;;5118985;27;20609;-82
2023/07/26 00:58:52;;;;;;;2.38;2.17;;;20.70;76.80;;;;;;5118966;27;20156;-85
2023/07/26 01:01:18;;;;;;;2.40;2.20;;;20.70;76.70;;;;;;5137218;27;20191;-83
2023/07/26 01:03:44;;;;;;;2.20;2.00;;;20.70;76.80;;;;;;5118729;27;20606;-86
2023/07/26 01:06:33;;;;;;;2.42;2.22;;;20.70;76.70;;;;;;5118986;27;20156;-83
2023/07/26 01:09:05;;;;;;;2.47;2.28;;;20.70;76.70;;;;;;5119466;27;20195;-86
2023/07/26 01:11:38;;;;;;;2.20;2.00;;;20.70;76.70;;;;;;5137306;27;20154;-82
2023/07/26 01:14:23;;;;;;;2.30;2.10;;;20.70;76.70;;;;;;5118520;27;20155;-83
2023/07/26 01:16:49;;;;;;;2.40;2.20;;;20.70;76.80;;;;;;5118400;27;20170;-82
2023/07/26 01:19:14;;;;;;;2.20;2.00;;;20.70;76.70;;;;;;5136829;27;20151;-84
2023/07/26 01:21:40;;;;;;;2.50;2.30;;;20.70;76.60;;;;;;5118464;27;20167;-83
2023/07/26 01:24:06;;;;;;;2.25;2.05;;;20.70;76.60;;;;;;5118282;27;20308;-86
2023/07/26 01:26:32;;;;;;;2.60;2.20;;;20.70;76.70;;;;;;5118791;27;20167;-82
2023/07/26 01:28:58;;;;;;;2.40;2.20;;;20.70;76.60;;;;;;5118311;27;20154;-85
2023/07/26 01:31:24;;;;;;;2.40;2.20;;;20.70;76.60;;;;;;5118125;27;20526;-84
2023/07/26 01:33:52;;;;;;;2.55;2.35;;;20.80;76.70;;;;;;5118165;27;20532;-86
2023/07/26 01:36:22;;;;;;;2.42;2.22;;;20.70;76.70;;;;;;5101464;27;20570;-85
2023/07/26 01:38:48;;;;;;;2.53;2.33;;;20.70;76.60;;;;;;5101176;27;20205;-85
2023/07/26 01:41:15;;;;;;;1.90;1.80;;;20.70;76.60;;;;;;5101481;27;20246;-87
2023/07/26 01:43:41;;;;;;;2.40;2.20;;;20.70;76.50;;;;;;5136753;27;20157;-85
2023/07/26 01:46:11;;;;;;;2.13;2.03;;;20.70;76.60;;;;;;5118152;27;20204;-86
2023/07/26 01:48:37;;;;;;;2.50;2.30;;;20.70;76.50;;;;;;5118342;27;20226;-86
2023/07/26 01:51:04;;;;;;;2.60;2.40;;;20.60;76.70;;;;;;5117857;27;20155;-87
2023/07/26 01:53:30;;;;;;;2.30;2.10;;;20.70;76.50;;;;;;5097381;28;20268;-85
2023/07/26 01:55:55;;;;;;;2.92;2.55;;;20.70;76.50;;;;;;5114581;28;20148;-84
2023/07/26 01:58:21;;;;;;;2.40;2.20;;;20.70;76.70;;;;;;5114344;28;20159;-87
2023/07/26 02:00:47;;;;;;;2.40;2.20;;;20.60;76.50;;;;;;5114463;28;20211;-85
2023/07/26 02:03:13;;;;;;;2.47;2.28;;;20.70;76.70;;;;;;5114203;28;20153;-87
2023/07/26 02:05:44;;;;;;;2.40;2.20;;;20.70;76.70;;;;;;5114219;28;20156;-88
2023/07/26 02:08:10;;;;;;;2.47;2.28;;;20.70;76.60;;;;;;5115312;28;20144;-85
2023/07/26 02:10:36;;;;;;;2.42;2.22;;;20.70;76.70;;;;;;5096974;28;20175;-83
2023/07/26 02:13:01;;;;;;;2.47;2.28;;;20.70;76.60;;;;;;5115248;28;20235;-85
2023/07/26 02:15:27;;;;;;;2.28;2.08;;;20.60;76.60;;;;;;5113907;28;20170;-86
2023/07/26 02:17:53;;;;;;;2.30;2.10;;;20.70;76.60;;;;;;5115062;28;20148;-84
2023/07/26 02:20:19;;;;;;;2.28;2.08;;;20.70;76.50;;;;;;5114033;28;20180;-84
2023/07/26 02:22:46;;;;;;;2.50;2.30;;;20.70;76.40;;;;;;5096811;28;20649;-87
2023/07/26 02:25:11;;;;;;;2.20;2.00;;;20.60;76.50;;;;;;5113689;28;20251;-85
2023/07/26 02:27:37;;;;;;;2.22;2.03;;;20.70;76.60;;;;;;5114006;28;20180;-83
2023/07/26 02:30:04;;;;;;;2.38;2.17;;;20.70;76.50;;;;;;5114125;28;20156;-84
2023/07/26 02:32:30;;;;;;;2.42;2.22;;;20.70;76.50;;;;;;5114983;28;20156;-84
2023/07/26 02:34:56;;;;;;;2.38;2.17;;;20.70;76.50;;;;;;5113496;28;20176;-84
2023/07/26 02:37:22;;;;;;;2.30;2.10;;;20.70;76.60;;;;;;5113776;28;20175;-84
2023/07/26 02:39:48;;;;;;;2.33;2.13;;;20.70;76.50;;;;;;5096619;28;20207;-84
2023/07/26 02:42:14;;;;;;;2.28;2.08;;;20.70;76.50;;;;;;5113635;28;20155;-85
2023/07/26 02:44:45;;;;;;;2.40;2.20;;;20.60;76.50;;;;;;5114583;28;20603;-84
2023/07/26 02:47:10;;;;;;;2.20;2.00;;;20.70;76.30;;;;;;5095914;28;20181;-85
2023/07/26 02:49:36;;;;;;;2.40;2.20;;;20.60;76.40;;;;;;5113380;28;20504;-86
2023/07/26 02:52:02;;;;;;;2.90;2.60;;;20.70;76.50;;;;;;5119330;27;20218;-85
2023/07/26 02:54:28;;;;;;;2.38;2.17;;;20.60;76.50;;;;;;5116735;27;20626;-83
2023/07/26 02:56:54;;;;;;;2.28;2.08;;;20.60;76.50;;;;;;5116708;27;20151;-85
2023/07/26 02:59:20;;;;;;;2.60;2.40;;;20.60;76.50;;;;;;5135213;27;20187;-84
2023/07/26 03:01:46;;;;;;;2.33;2.13;;;20.70;76.60;;;;;;5116554;27;20243;-83
2023/07/26 03:04:12;;;;;;;2.33;2.13;;;20.60;76.40;;;;;;5099354;27;20254;-85
2023/07/26 03:06:40;;;;;;;2.63;2.08;;;20.60;76.40;;;;;;5116823;27;20253;-83
2023/07/26 03:09:06;;;;;;;2.65;2.28;;;20.70;76.40;;;;;;5116347;27;20152;-85
2023/07/26 03:11:32;;;;;;;2.38;2.17;;;20.70;76.30;;;;;;5134562;27;20224;-83
2023/07/26 03:13:58;;;;;;;2.30;2.10;;;20.70;76.30;;;;;;5116263;27;20175;-83
2023/07/26 03:16:24;;;;;;;2.28;2.08;;;20.70;76.40;;;;;;5116104;28;20159;-85
2023/07/26 03:18:50;;;;;;;2.47;2.28;;;20.70;76.30;;;;;;5116541;27;20152;-85
2023/07/26 03:21:16;;;;;;;2.47;2.28;;;20.70;76.20;;;;;;5116321;27;20591;-84
2023/07/26 03:23:42;;;;;;;2.22;2.03;;;20.60;76.30;;;;;;5116169;27;20156;-85
2023/07/26 03:26:07;;;;;;;2.17;2.00;;;20.60;76.40;;;;;;5116179;27;20155;-85
2023/07/26 03:28:33;;;;;;;2.55;2.35;;;20.60;76.40;;;;;;5116840;27;20254;-88
2023/07/26 03:31:00;;;;;;;2.40;2.20;;;20.60;76.50;;;;;;5099080;27;20633;-82
2023/07/26 03:33:26;;;;;;;2.28;2.08;;;20.60;76.50;;;;;;5098998;27;20201;-87
2023/07/26 03:35:52;;;;;;;2.30;2.10;;;20.60;76.40;;;;;;5099166;28;20171;-84
2023/07/26 03:38:18;;;;;;;2.38;2.17;;;20.60;76.50;;;;;;5116105;27;20155;-86
2023/07/26 03:40:44;;;;;;;1.95;1.83;;;20.60;76.40;;;;;;5134213;27;20187;-87
2023/07/26 03:43:10;;;;;;;2.30;2.10;;;20.70;76.40;;;;;;5116224;28;20509;-86
2023/07/26 03:45:36;;;;;;;2.10;2.00;;;20.60;76.40;;;;;;5116278;28;20225;-85
2023/07/26 03:48:02;;;;;;;2.40;2.20;;;20.70;76.40;;;;;;5115904;28;20194;-85
2023/07/26 03:50:28;;;;;;;2.42;2.22;;;20.60;76.30;;;;;;5099732;28;20601;-85
2023/07/26 03:52:54;;;;;;;2.58;2.10;;;20.70;76.30;;;;;;5098649;28;20229;-85
2023/07/26 03:55:20;;;;;;;2.47;2.28;;;20.60;76.10;;;;;;5134107;28;20558;-84
2023/07/26 03:57:46;;;;;;;2.00;1.80;;;20.70;76.20;;;;;;5115824;28;20250;-86
2023/07/26 04:00:12;;;;;;;2.30;2.10;;;20.70;76.10;;;;;;5133972;28;20194;-85
2023/07/26 04:02:38;;;;;;;2.40;2.20;;;20.70;76.00;;;;;;5134146;28;20164;-83
2023/07/26 04:05:05;;;;;;;2.35;2.15;;;20.70;76.00;;;;;;5134308;28;20148;-82
2023/07/26 04:07:30;;;;;;;2.10;1.90;;;20.60;76.00;;;;;;5134322;28;20148;-84
2023/07/26 04:09:58;;;;;;;2.13;1.92;;;20.60;75.90;;;;;;5134294;28;20216;-85
2023/07/26 04:12:25;;;;;;;2.20;2.00;;;20.70;75.90;;;;;;5098711;28;20171;-86
2023/07/26 04:14:50;;;;;;;2.38;2.17;;;20.70;75.80;;;;;;5115756;28;20159;-84
2023/07/26 04:17:17;;;;;;;2.20;2.00;;;20.80;75.70;;;;;;5133975;28;20147;-85
2023/07/26 04:19:43;;;;;;;2.40;2.20;;;20.70;75.80;;;;;;5115977;28;20561;-86
2023/07/26 04:22:09;;;;;;;2.35;2.15;;;20.70;75.80;;;;;;5133916;27;20162;-86
2023/07/26 04:24:35;;;;;;;2.33;2.10;;;20.70;75.50;;;;;;5137372;27;20237;-84
2023/07/26 04:27:01;;;;;;;2.35;2.15;;;20.70;75.50;;;;;;5119639;27;20166;-85
2023/07/26 04:29:27;;;;;;;2.13;1.92;;;20.80;75.40;;;;;;5102406;27;20163;-84
2023/07/26 04:31:53;;;;;;;2.03;1.83;;;20.70;75.50;;;;;;5137675;27;20606;-84
2023/07/26 04:34:19;;;;;;;2.42;2.20;;;20.80;75.30;;;;;;5119613;27;20168;-86
2023/07/26 04:36:44;;;;;;;2.00;1.85;;;20.80;75.30;;;;;;5102176;27;20170;-85
2023/07/26 04:39:10;;;;;;;2.40;2.20;;;20.80;75.20;;;;;;5102267;27;20258;-86
2023/07/26 04:41:36;;;;;;;2.30;2.10;;;20.80;75.10;;;;;;5137530;27;20270;-85
2023/07/26 04:44:02;;;;;;;1.98;1.88;;;20.80;75.10;;;;;;5137503;27;20159;-83
2023/07/26 04:46:28;;;;;;;2.05;1.85;;;20.90;75.00;;;;;;5119590;27;20179;-86
2023/07/26 04:48:54;;;;;;;2.33;2.10;;;20.90;75.70;;;;;;5138059;27;20648;-83
2023/07/26 04:51:22;;;;;;;2.42;2.20;;;20.80;74.90;;;;;;5102247;27;20172;-84
2023/07/26 04:53:47;;;;;;;2.10;1.90;;;20.80;75.00;;;;;;5119072;27;20226;-84
2023/07/26 04:56:15;;;;;;;2.08;1.92;;;20.90;74.80;;;;;;5102511;27;20254;-87
2023/07/26 04:58:41;;;;;;;1.98;1.88;;;20.90;74.80;;;;;;5137294;27;20147;-85
2023/07/26 05:01:07;;;;;;;2.38;2.17;;;20.90;74.80;;;;;;5137222;27;20583;-86
2023/07/26 05:03:34;;;;;;;2.10;1.90;;;20.90;74.70;;;;;;5119050;27;20652;-86
2023/07/26 05:06:00;;;;;;;2.35;2.00;;;20.90;74.40;;;;;;5102477;27;20212;-86
2023/07/26 05:08:26;;;;;;;2.15;1.95;;;20.90;74.40;;;;;;5118842;27;20166;-86
2023/07/26 05:10:52;;;;;;;2.20;2.00;;;21.00;74.40;;;;;;5101538;27;20258;-83
2023/07/26 05:13:19;;;;;;;2.00;1.80;;;21.00;74.10;;;;;;5118697;27;20600;-83
2023/07/26 05:15:45;;;;;;;2.17;2.00;;;21.00;74.00;;;;;;5137090;27;20621;-82
2023/07/26 05:18:11;;;;;;;2.00;1.80;;;21.00;74.00;;;;;;5136870;27;20181;-85
2023/07/26 05:20:37;;;;;;;2.30;2.10;;;21.00;74.00;;;;;;5136750;27;20194;-83
2023/07/26 05:23:02;;;;;;;2.47;1.98;;;21.00;74.00;;;;;;5113281;27;20167;-87
2023/07/26 05:25:28;;;;;;;2.20;2.00;;;20.90;74.30;;;;;;5157402;27;20157;-85
2023/07/26 05:27:55;;;;;;;2.17;1.98;;;21.00;74.10;;;;;;5138989;27;20154;-84
2023/07/26 05:30:21;;;;;;;1.98;1.80;;;21.00;73.90;;;;;;5157259;27;20159;-83
2023/07/26 05:32:46;;;;;;;2.22;2.03;;;21.10;74.40;;;;;;5156133;27;20147;-83
2023/07/26 05:35:12;;;;;;;2.00;1.80;;;21.10;73.50;;;;;;5155927;27;20681;-83
2023/07/26 05:37:38;;;;;;;1.98;1.80;;;21.20;73.30;;;;;;5155886;27;20154;-82
2023/07/26 05:40:05;;;;;;;2.33;2.13;;;21.10;73.30;;;;;;5157027;27;20183;-83
2023/07/26 05:42:32;;;;;;;2.90;1.92;;;21.10;73.20;;;;;;5121828;27;20609;-83
2023/07/26 05:44:58;;;;;;;2.20;2.00;;;21.00;73.20;;;;;;5138685;27;20163;-85
2023/07/26 05:47:24;;;;;;;2.00;1.80;;;21.00;73.10;;;;;;5156032;27;20151;-87
2023/07/26 05:49:50;;;;;;;1.70;1.60;;;20.90;73.00;;;;;;5155686;27;20163;-84
2023/07/26 05:52:15;;;;;;;1.80;1.70;;;21.00;72.80;;;;;;5156693;27;20628;-84
2023/07/26 05:54:41;;;;;;;2.10;1.90;;;20.90;72.70;;;;;;5121305;27;20319;-85
2023/07/26 05:57:07;;;;;;;2.13;1.92;;;20.90;72.70;;;;;;5157183;27;20174;-86
2023/07/26 05:59:33;;;;;;;1.70;1.60;;;20.90;72.70;;;;;;5155605;27;20681;-85
2023/07/26 06:01:59;;;;;;;2.10;1.90;;;20.90;72.60;;;;;;5155763;27;20236;-87
2023/07/26 06:04:25;;;;;;;1.77;1.67;;;20.90;72.10;;;;;;5156629;27;20233;-85
2023/07/26 06:06:50;;;;;;;2.20;1.98;;;20.90;72.00;;;;;;5155481;27;20181;-84
2023/07/26 06:09:17;;;;;;;2.00;1.80;;;20.80;72.20;;;;;;5138018;27;20162;-84
2023/07/26 06:11:43;;;;;;;1.83;1.73;;;20.80;72.20;;;;;;5155291;27;20674;-83
2023/07/26 06:14:09;;;;;;;2.03;1.88;;;20.70;71.90;;;;;;5138689;27;20170;-84
2023/07/26 06:16:35;;;;;;;1.85;1.70;;;20.80;72.10;;;;;;5120866;27;20159;-83
2023/07/26 06:19:01;;;;;;;1.63;1.52;;;20.70;72.20;;;;;;5155239;27;20159;-84
2023/07/26 06:21:27;;;;;;;1.88;1.70;;;20.70;72.10;;;;;;5155157;27;20194;-84
2023/07/26 06:23:52;;;;;;;1.60;1.50;;;20.80;72.70;;;;;;5154977;27;20159;-85
2023/07/26 06:26:19;;;;;;;1.65;1.55;;;20.90;71.30;;;;;;5155122;27;20185;-83
2023/07/26 06:28:45;;;;;;;1.52;1.42;;;20.90;70.90;;;;;;5135795;27;20194;-83
2023/07/26 06:31:12;;;;;;;1.70;1.60;;;20.90;70.80;;;;;;5156235;27;20190;-83
2023/07/26 06:33:37;;;;;;;2.03;1.70;;;20.90;70.70;;;;;;5155204;27;20170;-86
2023/07/26 06:36:03;;;;;;;1.90;1.80;;;20.90;70.40;;;;;;5154891;27;20151;-83
2023/07/26 06:38:29;;;;;;;1.60;1.50;;;20.90;70.70;;;;;;5154854;27;20625;-84
2023/07/26 06:40:55;;;;;;;1.80;1.70;;;20.80;70.70;;;;;;5154713;27;20191;-85
2023/07/26 06:43:21;;;;;;;1.60;1.50;;;20.70;70.70;;;;;;5137340;27;20162;-83
2023/07/26 06:45:50;;;;;;;1.92;1.75;;;20.70;70.80;;;;;;5154231;27;20172;-85
2023/07/26 06:48:16;;;;;;;1.98;1.55;;;20.70;71.00;;;;;;5154610;27;20163;-85
2023/07/26 06:50:42;;;;;;;1.73;1.58;;;20.60;71.10;;;;;;5155786;27;20173;-82
2023/07/26 06:53:08;;;;;;;1.58;1.45;;;20.60;70.90;;;;;;5154309;27;20632;-85
2023/07/26 06:55:35;;;;;;;1.73;1.63;;;20.60;70.50;;;;;;5154603;27;20510;-83
2023/07/26 06:58:01;;;;;;;1.70;1.60;;;20.70;70.50;;;;;;5137874;27;20520;-84
2023/07/26 07:00:27;;;;;;;1.65;1.55;;;20.60;70.40;;;;;;5154383;27;20174;-83
2023/07/26 07:02:56;;;;;;;1.95;1.70;;;20.70;70.50;;;;;;5154434;27;20625;-86
2023/07/26 07:05:23;;;;;;;1.60;1.50;;;20.60;70.20;;;;;;5137058;27;20170;-84
2023/07/26 07:07:49;;;;;;;1.65;1.55;;;20.60;70.30;;;;;;5154247;27;20226;-85
2023/07/26 07:10:15;;;;;;;1.70;1.60;;;20.60;70.10;;;;;;5156264;27;20605;-84
2023/07/26 07:12:41;;;;;;;1.67;1.58;;;20.60;70.00;;;;;;5155636;27;20489;-83
2023/07/26 07:15:08;;;;;;;1.60;1.50;;;20.70;70.00;;;;;;5137191;27;20254;-85
2023/07/26 07:17:34;;;;;;;1.63;1.52;;;20.60;70.00;;;;;;5155550;27;20158;-85
2023/07/26 07:19:59;;;;;;;1.92;1.70;;;20.60;70.10;;;;;;5154020;27;20611;-86
2023/07/26 07:22:26;;;;;;;1.77;1.67;;;20.50;70.00;;;;;;5154064;27;20512;-84
2023/07/26 07:24:53;;;;;;;1.88;1.70;;;20.50;70.20;;;;;;5154337;27;20165;-83
2023/07/26 07:27:20;;;;;;;1.83;1.60;;;20.50;70.10;;;;;;5155323;27;20155;-84
2023/07/26 07:29:46;;;;;;;1.50;1.40;;;20.50;70.00;;;;;;5154317;27;20189;-83
2023/07/26 07:32:12;;;;;;;1.70;1.60;;;20.50;70.00;;;;;;5154096;27;20146;-84
2023/07/26 07:34:38;;;;;;;2.45;1.70;;;20.50;69.90;;;;;;5136609;27;20158;-85
2023/07/26 07:37:04;;;;;;;1.55;1.45;;;20.60;69.80;;;;;;5153894;27;20163;-83
2023/07/26 07:39:30;;;;;;;1.65;1.55;;;20.60;69.70;;;;;;5137049;27;20184;-84
2023/07/26 07:41:55;;;;;;;1.88;1.65;;;20.60;69.80;;;;;;5154371;27;20529;-84
2023/07/26 07:44:22;;;;;;;1.67;1.58;;;20.50;69.50;;;;;;5137604;27;20165;-84
2023/07/26 07:46:48;;;;;;;1.50;1.40;;;20.60;69.60;;;;;;5135980;27;20265;-84
2023/07/26 07:49:14;;;;;;;2.05;1.65;;;20.60;69.40;;;;;;5136426;27;20147;-83
2023/07/26 07:51:39;;;;;;;2.05;1.75;;;20.50;69.30;;;;;;5119322;27;20212;-84
2023/07/26 07:54:05;;;;;;;1.90;1.60;;;20.60;69.30;;;;;;5119274;27;20258;-84
2023/07/26 07:56:31;;;;;;;1.83;1.65;;;20.60;69.20;;;;;;5154883;27;20225;-84
2023/07/26 07:58:56;;;;;;;1.73;1.63;;;20.60;69.20;;;;;;5157302;27;20517;-87
2023/07/26 08:01:22;;;;;;;1.80;1.70;;;20.50;69.10;;;;;;5158997;27;20616;-84
2023/07/26 08:03:48;;;;;;;1.85;1.70;;;20.50;69.30;;;;;;5158991;27;20567;-85
2023/07/26 08:06:18;;;;;;;1.60;1.50;;;20.50;68.90;;;;;;5157880;27;20222;-83
2023/07/26 08:08:43;;;;;;;1.70;1.52;;;20.40;68.70;;;;;;5139740;27;20230;-85
2023/07/26 08:11:09;;;;;;;1.98;1.50;;;20.50;68.70;;;;;;5157803;27;20155;-86
2023/07/26 08:13:35;;;;;;;1.65;1.50;;;20.50;68.80;;;;;;5157713;27;20510;-83
2023/07/26 08:16:01;;;;;;;1.80;1.70;;;20.50;68.50;;;;;;5140439;27;20153;-82
2023/07/26 08:18:27;;;;;;;1.80;1.70;;;20.50;68.40;;;;;;5158705;27;20177;-85
2023/07/26 08:20:53;;;;;;;1.42;1.33;;;20.50;68.30;;;;;;5158542;27;20281;-87
2023/07/26 08:23:19;;;;;;;1.67;1.58;;;20.50;68.30;;;;;;5158613;27;20605;-84
2023/07/26 08:25:44;;;;;;;1.63;1.52;;;20.50;68.00;;;;;;5157268;27;20154;-85
2023/07/26 08:28:10;;;;;;;1.70;1.60;;;20.60;68.10;;;;;;5140134;27;20520;-83
2023/07/26 08:30:37;;;;;;;1.77;1.67;;;20.50;67.90;;;;;;5158603;27;20584;-83
2023/07/26 08:33:02;;;;;;;1.65;1.55;;;20.50;68.10;;;;;;5140432;27;20167;-86
2023/07/26 08:35:28;;;;;;;1.70;1.60;;;20.50;68.00;;;;;;5140163;27;20153;-83
2023/07/26 08:37:54;;;;;;;1.58;1.48;;;20.50;67.90;;;;;;5123430;27;20211;-83
2023/07/26 08:40:20;;;;;;;1.63;1.52;;;20.60;67.90;;;;;;5157455;27;20209;-86
2023/07/26 08:42:46;;;;;;;1.73;1.63;;;20.50;67.80;;;;;;5158691;27;20516;-87
2023/07/26 08:45:11;;;;;;;1.88;1.42;;;20.50;67.80;;;;;;5143516;27;20204;-84
2023/07/26 08:47:37;;;;;;;1.50;1.40;;;20.50;67.60;;;;;;5157636;27;20580;-84
2023/07/26 08:50:04;;;;;;;1.85;1.75;;;20.50;67.60;;;;;;5122318;27;20158;-86
2023/07/26 08:52:30;;;;;;;1.63;1.52;;;20.50;67.80;;;;;;5121928;27;20261;-86
2023/07/26 08:54:56;;;;;;;1.60;1.50;;;20.50;67.50;;;;;;5136998;27;20524;-82
2023/07/26 08:57:24;;;;;;;1.60;1.50;;;20.50;67.20;;;;;;5119856;27;20170;-83
2023/07/26 08:59:50;;;;;;;1.70;1.60;;;20.50;67.20;;;;;;5119706;27;20580;-84
2023/07/26 09:02:17;;;;;;;1.70;1.60;;;20.50;67.10;;;;;;5138119;27;20161;-82
2023/07/26 09:04:42;;;;;;;1.83;1.48;;;20.50;67.10;;;;;;5138077;27;20170;-83
2023/07/26 09:07:09;;;;;;;1.70;1.60;;;20.50;67.00;;;;;;5121434;27;20159;-86
2023/07/26 09:09:35;;;;;;;1.67;1.58;;;20.50;66.90;;;;;;5137973;27;20155;-88
2023/07/26 09:12:02;;;;;;;1.60;1.50;;;20.50;66.90;;;;;;5156917;27;20151;-85
2023/07/26 09:14:29;;;;;;;1.80;1.70;;;20.50;66.90;;;;;;5122929;27;20159;-84
2023/07/26 09:16:56;;;;;;;1.73;1.63;;;20.50;66.80;;;;;;5157532;27;20147;-86
2023/07/26 09:19:35;;;;;;;1.73;1.60;;;20.40;66.60;;;;;;5121258;27;20178;-85
2023/07/26 09:22:03;;;;;;;2.20;1.60;;;20.50;66.70;;;;;;5121445;27;20183;-86
2023/07/26 09:24:33;;;;;;;1.60;1.50;;;20.50;66.70;;;;;;5138060;27;20230;-85
2023/07/26 09:27:03;;;;;;;1.80;1.70;;;20.50;66.70;;;;;;5121170;27;20162;-86
2023/07/26 09:29:29;;;;;;;1.63;1.52;;;20.40;66.70;;;;;;5138204;27;20154;-84
2023/07/26 09:31:55;;;;;;;1.83;1.73;;;20.40;66.60;;;;;;5138529;27;20185;-82
2023/07/26 09:34:22;;;;;;;1.50;1.40;;;20.40;66.60;;;;;;5138602;27;20520;-85
2023/07/26 09:36:49;;;;;;;1.60;1.50;;;20.50;66.60;;;;;;5138794;27;20163;-86
2023/07/26 09:39:15;;;;;;;2.10;1.80;;;20.50;66.50;;;;;;5156248;27;20150;-86
2023/07/26 09:41:41;;;;;;;1.60;1.50;;;20.40;66.50;;;;;;5121951;27;20327;-85
2023/07/26 09:44:16;;;;;;;1.70;1.60;;;20.50;66.60;;;;;;5139154;27;20162;-84
2023/07/26 09:46:52;;;;;;;1.98;1.83;;;20.40;66.50;;;;;;5139138;27;20169;-85
2023/07/26 09:49:19;;;;;;;1.92;1.75;;;20.40;66.40;;;;;;5139104;27;20581;-84
2023/07/26 09:51:45;;;;;;;1.63;1.53;;;20.40;66.50;;;;;;5076051;27;1252535;-86
2023/07/26 09:54:11;;;;;;;1.60;1.50;;;20.50;66.40;;;;;;5156822;27;20684;-85
2023/07/26 09:56:38;;;;;;;1.63;1.52;;;20.50;66.30;;;;;;5156940;27;20161;-85
2023/07/26 09:59:04;;;;;;;1.92;1.73;;;20.50;66.20;;;;;;5138401;27;20162;-83
2023/07/26 10:01:30;;;;;;;2.38;1.92;;;20.40;66.20;;;;;;5139416;27;20235;-87
2023/07/26 10:03:56;;;;;;;1.70;1.60;;;20.50;66.20;;;;;;5140025;27;20163;-86
2023/07/26 10:06:22;;;;;;;2.45;1.75;;;20.50;66.20;;;;;;5140226;27;20155;-83
2023/07/26 10:08:47;;;;;;;2.00;1.80;;;20.50;66.10;;;;;;5139306;27;20173;-87
2023/07/26 10:11:14;;;;;;;1.70;1.60;;;20.50;66.00;;;;;;5139768;27;20604;-84
2023/07/26 10:13:41;;;;;;;1.73;1.63;;;20.40;65.90;;;;;;5123170;27;20641;-86
2023/07/26 10:16:08;;;;;;;1.70;1.60;;;20.50;65.80;;;;;;5122836;27;20581;-83
2023/07/26 10:18:33;;;;;;;1.83;1.73;;;20.50;65.80;;;;;;5158214;27;20154;-87
2023/07/26 10:21:01;;;;;;;1.77;1.67;;;20.50;65.80;;;;;;5157462;27;20235;-85
2023/07/26 10:23:26;;;;;;;1.80;1.70;;;20.50;65.70;;;;;;5121803;27;20159;-84
2023/07/26 10:25:52;;;;;;;1.60;1.50;;;20.50;65.70;;;;;;5104684;27;20181;-86
2023/07/26 10:28:19;;;;;;;1.70;1.60;;;20.50;65.70;;;;;;5122152;27;20636;-84
2023/07/26 10:30:45;;;;;;;1.67;1.58;;;20.50;65.60;;;;;;5121474;27;20644;-84
2023/07/26 10:33:12;;;;;;;1.73;1.63;;;20.50;65.60;;;;;;5139527;27;20258;-82
2023/07/26 10:35:38;;;;;;;1.70;1.60;;;20.50;65.60;;;;;;5158246;27;20151;-83
2023/07/26 10:38:03;;;;;;;1.88;1.77;;;20.50;65.50;;;;;;5121899;27;20162;-86
2023/07/26 10:40:34;;;;;;;1.73;1.63;;;20.50;65.50;;;;;;5121955;27;20226;-87
2023/07/26 10:43:17;;;;;;;1.90;1.70;;;20.50;65.40;;;;;;5157378;27;20150;-86
2023/07/26 10:45:44;;;;;;;1.80;1.70;;;20.50;65.30;;;;;;5128742;27;20156;-87
2023/07/26 10:48:25;;;;;;;1.60;1.50;;;20.50;65.20;;;;;;5101143;27;20180;-84
2023/07/26 10:50:51;;;;;;;1.70;1.60;;;20.60;65.10;;;;;;5108102;27;20163;-85
2023/07/26 10:53:37;;;;;;;1.90;1.70;;;20.60;65.00;;;;;;5120800;27;20218;-86
2023/07/26 10:56:18;;;;;;;1.90;1.67;;;20.60;64.90;;;;;;5121541;27;20169;-85
2023/07/26 10:58:51;;;;;;;1.83;1.73;;;20.60;64.80;;;;;;5138619;27;20173;-86
2023/07/26 11:01:44;;;;;;;2.47;1.60;;;20.60;64.80;;;;;;5120993;27;20252;-84
2023/07/26 11:04:13;;;;;;;2.03;1.50;;;20.60;64.80;;;;;;5137776;27;20155;-85
2023/07/26 11:07:01;;;;;;;1.77;1.67;;;20.60;64.70;;;;;;5137060;27;20617;-86
2023/07/26 11:09:28;;;;;;;1.98;1.73;;;20.60;64.50;;;;;;5155637;27;20604;-84
2023/07/26 11:11:58;;;;;;;1.50;1.40;;;20.60;64.30;;;;;;5119802;27;20211;-85
2023/07/26 11:14:26;;;;;;;1.77;1.67;;;20.60;64.30;;;;;;5075307;28;20203;-83
2023/07/26 11:16:53;;;;;;;1.70;1.50;;;20.60;64.10;;;;;;5092604;28;20192;-84
2023/07/26 11:19:18;;;;;;;1.70;1.60;;;20.50;63.80;;;;;;5092173;28;20177;-87
2023/07/26 11:21:44;;;;;;;1.73;1.60;;;20.60;63.80;;;;;;5092416;28;20570;-84
2023/07/26 11:24:11;;;;;;;1.75;1.52;;;20.60;63.70;;;;;;5091996;28;20639;-86
2023/07/26 11:26:44;;;;;;;1.80;1.70;;;20.60;63.60;;;;;;5073932;28;20225;-86
2023/07/26 11:29:10;;;;;;;1.85;1.75;;;20.60;63.50;;;;;;5091507;28;20184;-84
2023/07/26 11:31:37;;;;;;;1.60;1.50;;;20.60;63.60;;;;;;5074039;28;20169;-85
2023/07/26 11:34:15;;;;;;;1.80;1.70;;;20.60;63.60;;;;;;5090552;28;20267;-83
2023/07/26 11:36:41;;;;;;;1.52;1.42;;;20.70;63.50;;;;;;5073574;28;20241;-87
2023/07/26 11:39:16;;;;;;;1.70;1.60;;;20.60;63.40;;;;;;5074835;28;20180;-84
2023/07/26 11:41:42;;;;;;;1.88;1.70;;;20.60;63.20;;;;;;5092105;28;20192;-85
2023/07/26 11:44:08;;;;;;;1.60;1.50;;;20.60;63.20;;;;;;5092448;27;20309;-84
2023/07/26 11:46:34;;;;;;;1.60;1.50;;;20.60;63.00;;;;;;5119364;27;20163;-87
2023/07/26 11:49:00;;;;;;;1.70;1.60;;;20.70;63.00;;;;;;5119834;27;20186;-87
2023/07/26 11:51:30;;;;;;;1.50;1.40;;;20.70;62.90;;;;;;5155420;27;20601;-83
2023/07/26 11:53:56;;;;;;;1.65;1.55;;;20.70;62.90;;;;;;5136940;27;20178;-85
2023/07/26 11:56:30;;;;;;;1.50;1.40;;;20.70;62.80;;;;;;5118693;27;20154;-86
2023/07/26 11:58:58;;;;;;;1.55;1.45;;;20.60;62.60;;;;;;5134711;27;20167;-87
2023/07/26 12:01:24;;;;;;;1.95;1.85;;;20.70;62.60;;;;;;5136602;27;20277;-85
2023/07/26 12:03:51;;;;;;;1.50;1.40;;;20.70;62.50;;;;;;5120062;27;20235;-88
2023/07/26 12:06:19;;;;;;;1.80;1.70;;;20.70;62.30;;;;;;5136864;27;20229;-88
2023/07/26 12:08:47;;;;;;;2.55;1.73;;;20.70;62.20;;;;;;5155147;27;20158;-86
2023/07/26 12:11:17;;;;;;;1.65;1.55;;;20.70;62.30;;;;;;5136852;27;20158;-84
2023/07/26 12:13:42;;;;;;;1.60;1.50;;;20.70;62.10;;;;;;5155552;27;20193;-86
2023/07/26 12:16:09;;;;;;;1.70;1.60;;;20.70;62.00;;;;;;5119367;27;20158;-86
2023/07/26 12:18:34;;;;;;;1.88;1.67;;;20.70;61.80;;;;;;5119377;27;20262;-82
2023/07/26 12:21:03;;;;;;;1.60;1.50;;;20.60;61.70;;;;;;5136400;27;20281;-86
2023/07/26 12:23:29;;;;;;;1.70;1.60;;;20.70;61.60;;;;;;5154626;27;20147;-87
2023/07/26 12:25:56;;;;;;;1.23;1.23;;;20.70;61.60;;;;;;5102376;27;20174;-84
2023/07/26 12:28:25;;;;;;;1.70;1.60;;;20.70;61.50;;;;;;5102530;27;20522;-86
2023/07/26 12:30:54;;;;;;;1.58;1.48;;;20.70;61.40;;;;;;5137069;27;20521;-88
2023/07/26 12:33:20;;;;;;;1.58;1.48;;;20.70;61.40;;;;;;5137233;27;20166;-85
2023/07/26 12:35:46;;;;;;;1.60;1.50;;;20.70;61.30;;;;;;5119424;27;20632;-84
2023/07/26 12:38:17;;;;;;;1.58;1.48;;;20.70;61.30;;;;;;5136002;27;20640;-86
2023/07/26 12:40:44;;;;;;;1.50;1.40;;;20.70;61.30;;;;;;5135860;27;20210;-88
2023/07/26 12:43:27;;;;;;;1.67;1.58;;;20.70;61.20;;;;;;5100828;27;20241;-86
2023/07/26 12:45:54;;;;;;;1.63;1.52;;;20.70;61.00;;;;;;5157466;27;20204;-83